Pullman, WA (99163)

12:23 AM PST on December 06, 2016 (GMT -0800)
Northwest Sunset Drive | | Change Station

Elev 2516 ft 46.74 °N, 117.18 °W | Updated 47 seconds ago

Light Snow
Light Snow Mist
28.2 °F
Feels Like 28 °F
N
0.6
Wind Variable Wind from SW
Gusts 5.0 mph

Today
High -- | Low -- °F
--% Chance of Precip.
Yesterday
High -- | Low -- °F
Precip. -- in
Pressure 29.92 in
Visibility 2.5 miles
Clouds Overcast 2400 ft
Windchill 28 °F
Dew Point 24 °F
Humidity 84%
Rainfall 0.00 in
Snow Depth Not available.
7:19 AM 4:00 PM
Waxing Crescent, 39% visible
SPECI KPUW 060802Z AUTO 11011KT 2 1/2SM -SN BR OVC024 M03/M05 A2992 RMK AO2 P0000 T10281050
Pressure 29.92 in
Visibility 2.5 miles
Clouds Overcast 2400 ft
Windchill 28 °F
Dew Point 24 °F
Humidity 84%
Rainfall 0.00 in
Snow Depth Not available.
7:19 AM 4:00 PM
Waxing Crescent, 39% visible
SPECI KPUW 060802Z AUTO 11011KT 2 1/2SM -SN BR OVC024 M03/M05 A2992 RMK AO2 P0000 T10281050

10-Day Weather Forecast

Almanac

Astronomy

Dec. 06, 2016 Rise Set
Actual Time
Civil Twilight
Nautical Twilight
Astronomical Twilight
Moon
Length of Visible Light
Length of Day
Tomorrow will be .
, % of the Moon is Illuminated

Today's Extremes

State Highs State Lows

Community

WunderPhotos

Upload Photos

1,955,935 photos uploaded!

WunderBlog® & News

Nearby

Air Quality

  Air Quality AQ Index Pollutant
Not available.

Snow Depth

Station Depth Elevation

Earthquake Activity

City Distance Mag. Time & Date
Minimum magnitude displayed is 2.5.

Coastal Water Temperatures

Place Temperature

Stations

Nearby Weather Stations

Station Location Temp. Windchill Dew Point Humidity Wind Precip. Elev Updated Type
                   

Watches & Warnings

There are currently no watches in effect.